Rush River, Wisconsin
Current Conditions -  °F | °C
As of 5:55 AM on Monday 22 Dec 2014 (Local Time) from KRNH Reporting Station
Haze Haze  
Wind Chill: 28°   Ceiling: 800
Heat Index: 36°   Visibility: 5mi
Dew Point: 36°   Wind: 12mph
Humidity: 100%   Direction: 140°SE
Pressure: 29.7"   Gusts: NA
Location:  44.9659°N, 92.3734°W
Report Text: KRNH 221155Z AUTO 14010KT 5SM BR OVC008 02/02 A2970 RMK AO2 60001 70031 T00200020 10025 20018
Loading
Personal Weather Stations






























Interactive Weather Map New forecast layout! Learn more

10-Day Weather Forecast

Advertisements
Track Severe Weather on mobile